sensor_id;sensor_type;location;lat;lon;timestamp;pressure;altitude;pressure_sealevel;temperature;humidity
4113;BME280;2070;51.042;7.056;2022-10-16T00:00:37;48430.22;;;-146.17;100.00
4113;BME280;2070;51.042;7.056;2022-10-16T00:03:04;48721.94;;;-146.17;100.00
4113;BME280;2070;51.042;7.056;2022-10-16T00:05:29;51274.03;;;-146.17;100.00
4113;BME280;2070;51.042;7.056;2022-10-16T00:07:55;51207.25;;;-146.17;100.00
4113;BME280;2070;51.042;7.056;2022-10-16T00:10:21;51558.38;;;-146.17;100.00
4113;BME280;2070;51.042;7.056;2022-10-16T00:12:46;51520.19;;;-146.17;100.00
4113;BME280;2070;51.042;7.056;2022-10-16T00:15:12;51678.59;;;-146.17;100.00
4113;BME280;2070;51.042;7.056;2022-10-16T00:17:38;51798.81;;;-146.17;100.00
4113;BME280;2070;51.042;7.056;2022-10-16T00:20:04;51764.47;;;-146.17;100.00
4113;BME280;2070;51.042;7.056;2022-10-16T00:22:29;51901.88;;;-146.17;100.00
4113;BME280;2070;51.042;7.056;2022-10-16T00:24:54;51577.44;;;-146.17;100.00
4113;BME280;2070;51.042;7.056;2022-10-16T00:27:20;51678.59;;;-146.17;100.00
4113;BME280;2070;51.042;7.056;2022-10-16T00:29:49;51451.50;;;-146.17;100.00
4113;BME280;2070;51.042;7.056;2022-10-16T00:32:15;51432.44;;;-146.17;100.00
4113;BME280;2070;51.042;7.056;2022-10-16T00:34:41;51401.88;;;-146.17;100.00
4113;BME280;2070;51.042;7.056;2022-10-16T00:37:06;51220.63;;;-146.17;100.00
4113;BME280;2070;51.042;7.056;2022-10-16T00:39:31;51211.06;;;-146.17;100.00
4113;BME280;2070;51.042;7.056;2022-10-16T00:41:57;51182.47;;;-146.17;100.00
4113;BME280;2070;51.042;7.056;2022-10-16T00:44:46;50615.81;;;-146.17;100.00
4113;BME280;2070;51.042;7.056;2022-10-16T00:47:18;50942.03;;;-146.17;100.00
4113;BME280;2070;51.042;7.056;2022-10-16T00:49:45;51136.66;;;-146.17;100.00
4113;BME280;2070;51.042;7.056;2022-10-16T00:52:11;51228.25;;;-146.17;100.00
4113;BME280;2070;51.042;7.056;2022-10-16T00:54:38;51306.47;;;-146.17;100.00
4113;BME280;2070;51.042;7.056;2022-10-16T00:57:05;51506.84;;;-146.17;100.00
4113;BME280;2070;51.042;7.056;2022-10-16T00:59:36;51485.84;;;-146.17;100.00
4113;BME280;2070;51.042;7.056;2022-10-16T01:02:04;51289.31;;;-146.17;100.00
4113;BME280;2070;51.042;7.056;2022-10-16T01:04:56;50760.81;;;-146.17;100.00
4113;BME280;2070;51.042;7.056;2022-10-16T01:10:35;50837.13;;;-146.17;100.00
4113;BME280;2070;51.042;7.056;2022-10-16T01:13:07;51020.28;;;-146.17;100.00
4113;BME280;2070;51.042;7.056;2022-10-16T01:18:13;51516.38;;;-146.17;100.00
4113;BME280;2070;51.042;7.056;2022-10-16T01:20:45;51699.59;;;-146.17;100.00
4113;BME280;2070;51.042;7.056;2022-10-16T01:23:21;51964.84;;;-146.17;100.00
4113;BME280;2070;51.042;7.056;2022-10-16T01:26:13;50961.13;;;-146.17;100.00
4113;BME280;2070;51.042;7.056;2022-10-16T01:28:57;50781.78;;;-146.17;100.00
4113;BME280;2070;51.042;7.056;2022-10-16T01:31:27;51283.59;;;-146.17;100.00
4113;BME280;2070;51.042;7.056;2022-10-16T01:34:11;51153.84;;;-146.17;100.00
4113;BME280;2070;51.042;7.056;2022-10-16T01:36:45;51356.09;;;-146.17;100.00
4113;BME280;2070;51.042;7.056;2022-10-16T01:39:13;51613.72;;;-146.17;100.00
4113;BME280;2070;51.042;7.056;2022-10-16T01:41:47;51607.97;;;-146.17;100.00
4113;BME280;2070;51.042;7.056;2022-10-16T01:44:18;51581.28;;;-146.17;100.00
4113;BME280;2070;51.042;7.056;2022-10-16T01:46:47;51854.16;;;-146.17;100.00
4113;BME280;2070;51.042;7.056;2022-10-16T01:49:15;51827.44;;;-146.17;100.00
4113;BME280;2070;51.042;7.056;2022-10-16T01:51:45;51814.09;;;-146.17;100.00
4113;BME280;2070;51.042;7.056;2022-10-16T01:54:13;51806.44;;;-146.17;100.00
4113;BME280;2070;51.042;7.056;2022-10-16T01:56:41;51995.41;;;-146.17;100.00
4113;BME280;2070;51.042;7.056;2022-10-16T01:59:13;51630.88;;;-146.17;100.00
4113;BME280;2070;51.042;7.056;2022-10-16T02:01:43;51901.88;;;-146.17;100.00
4113;BME280;2070;51.042;7.056;2022-10-16T02:04:17;51974.41;;;-146.17;100.00
4113;BME280;2070;51.042;7.056;2022-10-16T02:06:43;52711.16;;;-146.17;100.00
4113;BME280;2070;51.042;7.056;2022-10-16T02:09:09;52104.19;;;-146.17;100.00
4113;BME280;2070;51.042;7.056;2022-10-16T02:11:34;52216.78;;;-146.17;100.00
4113;BME280;2070;51.042;7.056;2022-10-16T02:14:05;51795.00;;;-146.17;100.00
4113;BME280;2070;51.042;7.056;2022-10-16T02:16:39;51552.66;;;-146.17;100.00
4113;BME280;2070;51.042;7.056;2022-10-16T02:19:05;51581.28;;;-146.17;100.00
4113;BME280;2070;51.042;7.056;2022-10-16T02:21:44;51474.41;;;-146.17;100.00
4113;BME280;2070;51.042;7.056;2022-10-16T02:27:11;51525.94;;;-146.17;100.00
4113;BME280;2070;51.042;7.056;2022-10-16T02:29:43;51226.34;;;-146.17;100.00
4113;BME280;2070;51.042;7.056;2022-10-16T02:32:15;51077.50;;;-146.17;100.00
4113;BME280;2070;51.042;7.056;2022-10-16T02:34:43;51289.31;;;-146.17;100.00
4113;BME280;2070;51.042;7.056;2022-10-16T02:37:10;51443.88;;;-146.17;100.00
4113;BME280;2070;51.042;7.056;2022-10-16T02:39:36;51546.91;;;-146.17;100.00
4113;BME280;2070;51.042;7.056;2022-10-16T02:42:02;51216.81;;;-146.17;100.00
4113;BME280;2070;51.042;7.056;2022-10-16T02:44:27;51108.03;;;-146.17;100.00
4113;BME280;2070;51.042;7.056;2022-10-16T02:46:52;51260.69;;;-146.17;100.00
4113;BME280;2070;51.042;7.056;2022-10-16T02:49:18;51233.97;;;-146.17;100.00
4113;BME280;2070;51.042;7.056;2022-10-16T02:51:43;51199.63;;;-146.17;100.00
4113;BME280;2070;51.042;7.056;2022-10-16T02:54:09;50995.47;;;-146.17;100.00
4113;BME280;2070;51.042;7.056;2022-10-16T02:56:34;51172.91;;;-146.17;100.00
4113;BME280;2070;51.042;7.056;2022-10-16T02:58:59;51073.69;;;-146.17;100.00
4113;BME280;2070;51.042;7.056;2022-10-16T03:01:25;51052.72;;;-146.17;100.00
4113;BME280;2070;51.042;7.056;2022-10-16T03:03:50;50627.25;;;-146.17;100.00
4113;BME280;2070;51.042;7.056;2022-10-16T03:06:15;50808.50;;;-146.17;100.00
4113;BME280;2070;51.042;7.056;2022-10-16T03:08:41;50257.16;;;-146.17;100.00
4113;BME280;2070;51.042;7.056;2022-10-16T03:11:06;50184.69;;;-146.17;100.00
4113;BME280;2070;51.042;7.056;2022-10-16T03:13:31;49793.66;;;-146.17;100.00
4113;BME280;2070;51.042;7.056;2022-10-16T03:15:57;49671.59;;;-146.17;100.00
4113;BME280;2070;51.042;7.056;2022-10-16T03:18:22;49286.38;;;-146.17;100.00
4113;BME280;2070;51.042;7.056;2022-10-16T03:20:47;48864.94;;;-146.17;100.00
4113;BME280;2070;51.042;7.056;2022-10-16T03:23:13;48842.06;;;-146.17;100.00
4113;BME280;2070;51.042;7.056;2022-10-16T03:25:38;48878.28;;;-146.17;100.00
4113;BME280;2070;51.042;7.056;2022-10-16T03:28:04;48885.91;;;-146.17;100.00
4113;BME280;2070;51.042;7.056;2022-10-16T03:30:29;48847.78;;;-146.17;100.00
4113;BME280;2070;51.042;7.056;2022-10-16T03:32:55;48925.97;;;-146.17;100.00
4113;BME280;2070;51.042;7.056;2022-10-16T03:35:21;48784.88;;;-146.17;100.00
4113;BME280;2070;51.042;7.056;2022-10-16T03:37:47;48618.97;;;-146.17;100.00
4113;BME280;2070;51.042;7.056;2022-10-16T03:40:12;48687.63;;;-146.17;100.00
4113;BME280;2070;51.042;7.056;2022-10-16T03:42:37;48561.78;;;-146.17;100.00
4113;BME280;2070;51.042;7.056;2022-10-16T03:45:03;48441.66;;;-146.17;100.00
4113;BME280;2070;51.042;7.056;2022-10-16T03:47:29;48231.97;;;-146.17;100.00
4113;BME280;2070;51.042;7.056;2022-10-16T03:49:54;48382.56;;;-146.17;100.00
4113;BME280;2070;51.042;7.056;2022-10-16T03:52:19;48643.75;;;-146.17;100.00
4113;BME280;2070;51.042;7.056;2022-10-16T03:54:45;48901.16;;;-146.17;100.00
4113;BME280;2070;51.042;7.056;2022-10-16T03:57:10;49120.47;;;-146.17;100.00
4113;BME280;2070;51.042;7.056;2022-10-16T03:59:35;49276.84;;;-146.17;100.00
4113;BME280;2070;51.042;7.056;2022-10-16T04:02:01;49360.75;;;-146.17;100.00
4113;BME280;2070;51.042;7.056;2022-10-16T04:04:26;49475.16;;;-146.17;100.00
4113;BME280;2070;51.042;7.056;2022-10-16T04:06:51;49398.88;;;-146.17;100.00
4113;BME280;2070;51.042;7.056;2022-10-16T04:09:17;49212.00;;;-146.17;100.00
4113;BME280;2070;51.042;7.056;2022-10-16T04:11:42;48920.25;;;-146.17;100.00
4113;BME280;2070;51.042;7.056;2022-10-16T04:14:08;48861.13;;;-146.17;100.00
4113;BME280;2070;51.042;7.056;2022-10-16T04:16:33;48502.69;;;-146.17;100.00
4113;BME280;2070;51.042;7.056;2022-10-16T04:18:58;49227.25;;;-146.17;100.00
4113;BME280;2070;51.042;7.056;2022-10-16T04:21:24;48292.97;;;-146.17;100.00
4113;BME280;2070;51.042;7.056;2022-10-16T04:23:49;48033.69;;;-146.17;100.00
4113;BME280;2070;51.042;7.056;2022-10-16T04:26:15;47795.41;;;-146.17;100.00
4113;BME280;2070;51.042;7.056;2022-10-16T04:28:40;47732.50;;;-146.17;100.00
4113;BME280;2070;51.042;7.056;2022-10-16T04:31:06;47389.44;;;-146.17;100.00
4113;BME280;2070;51.042;7.056;2022-10-16T04:33:32;47231.25;;;-146.17;100.00
4113;BME280;2070;51.042;7.056;2022-10-16T04:35:59;47419.94;;;-146.17;100.00
4113;BME280;2070;51.042;7.056;2022-10-16T04:38:25;47305.56;;;-146.17;100.00
4113;BME280;2070;51.042;7.056;2022-10-16T04:40:50;47486.63;;;-146.17;100.00
4113;BME280;2070;51.042;7.056;2022-10-16T04:43:16;47206.47;;;-146.17;100.00
4113;BME280;2070;51.042;7.056;2022-10-16T04:45:41;46672.88;;;-146.17;100.00
4113;BME280;2070;51.042;7.056;2022-10-16T04:48:06;47048.28;;;-146.17;100.00
4113;BME280;2070;51.042;7.056;2022-10-16T04:50:32;47238.88;;;-146.17;100.00
4113;BME280;2070;51.042;7.056;2022-10-16T04:52:57;47513.31;;;-146.17;100.00
4113;BME280;2070;51.042;7.056;2022-10-16T04:55:22;47745.84;;;-146.17;100.00
4113;BME280;2070;51.042;7.056;2022-10-16T04:57:48;47957.44;;;-146.17;100.00
4113;BME280;2070;51.042;7.056;2022-10-16T05:00:13;48327.28;;;-146.17;100.00
4113;BME280;2070;51.042;7.056;2022-10-16T05:02:38;48331.09;;;-146.17;100.00
4113;BME280;2070;51.042;7.056;2022-10-16T05:05:04;48191.91;;;-146.17;100.00
4113;BME280;2070;51.042;7.056;2022-10-16T05:07:30;48218.63;;;-146.17;100.00
4113;BME280;2070;51.042;7.056;2022-10-16T05:09:55;48197.63;;;-146.17;100.00
4113;BME280;2070;51.042;7.056;2022-10-16T05:12:21;48369.22;;;-146.17;100.00
4113;BME280;2070;51.042;7.056;2022-10-16T05:14:46;48521.75;;;-146.17;100.00
4113;BME280;2070;51.042;7.056;2022-10-16T05:17:11;48868.75;;;-146.17;100.00
4113;BME280;2070;51.042;7.056;2022-10-16T05:19:37;48430.22;;;-146.17;100.00
4113;BME280;2070;51.042;7.056;2022-10-16T05:22:02;48601.81;;;-146.17;100.00
4113;BME280;2070;51.042;7.056;2022-10-16T05:24:27;48779.13;;;-146.17;100.00
4113;BME280;2070;51.042;7.056;2022-10-16T05:26:53;49158.59;;;-146.17;100.00
4113;BME280;2070;51.042;7.056;2022-10-16T05:29:18;49093.75;;;-146.17;100.00
4113;BME280;2070;51.042;7.056;2022-10-16T05:31:44;49177.66;;;-146.17;100.00
4113;BME280;2070;51.042;7.056;2022-10-16T05:34:09;48901.16;;;-146.17;100.00
4113;BME280;2070;51.042;7.056;2022-10-16T05:36:34;48967.91;;;-146.17;100.00
4113;BME280;2070;51.042;7.056;2022-10-16T05:39:00;49042.28;;;-146.17;100.00
4113;BME280;2070;51.042;7.056;2022-10-16T05:41:25;49271.09;;;-146.17;100.00
4113;BME280;2070;51.042;7.056;2022-10-16T05:43:52;50095.03;;;-146.17;100.00
4113;BME280;2070;51.042;7.056;2022-10-16T05:46:18;49803.19;;;-146.17;100.00
4113;BME280;2070;51.042;7.056;2022-10-16T05:48:43;50070.22;;;-146.17;100.00
4113;BME280;2070;51.042;7.056;2022-10-16T05:51:10;50144.63;;;-146.17;100.00
4113;BME280;2070;51.042;7.056;2022-10-16T05:53:37;50188.50;;;-146.17;100.00
4113;BME280;2070;51.042;7.056;2022-10-16T05:56:03;50098.84;;;-146.17;100.00
4113;BME280;2070;51.042;7.056;2022-10-16T05:58:31;50066.41;;;-146.17;100.00
4113;BME280;2070;51.042;7.056;2022-10-16T06:01:03;50259.06;;;-146.17;100.00
4113;BME280;2070;51.042;7.056;2022-10-16T06:03:29;50938.22;;;-146.17;100.00
4113;BME280;2070;51.042;7.056;2022-10-16T06:05:55;51329.38;;;-146.17;100.00
4113;BME280;2070;51.042;7.056;2022-10-16T06:08:21;51220.63;;;-146.17;100.00
4113;BME280;2070;51.042;7.056;2022-10-16T06:10:48;52228.25;;;-146.17;100.00
4113;BME280;2070;51.042;7.056;2022-10-16T06:13:14;52466.84;;;-146.17;100.00
4113;BME280;2070;51.042;7.056;2022-10-16T06:15:41;53409.91;;;-146.17;100.00
4113;BME280;2070;51.042;7.056;2022-10-16T06:18:09;54534.69;;;-146.17;100.00
4113;BME280;2070;51.042;7.056;2022-10-16T06:20:36;56231.16;;;-146.17;100.00
4113;BME280;2070;51.042;7.056;2022-10-16T06:23:02;58056.56;;;-146.17;100.00
4113;BME280;2070;51.042;7.056;2022-10-16T06:25:29;58226.75;;;-146.17;100.00
4113;BME280;2070;51.042;7.056;2022-10-16T06:27:54;58075.69;;;-146.17;100.00
4113;BME280;2070;51.042;7.056;2022-10-16T06:30:20;57408.50;;;-146.17;100.00
4113;BME280;2070;51.042;7.056;2022-10-16T06:32:45;57773.63;;;-146.17;100.00
4113;BME280;2070;51.042;7.056;2022-10-16T06:35:10;59272.78;;;-146.17;100.00
4113;BME280;2070;51.042;7.056;2022-10-16T06:37:36;60485.63;;;-146.17;100.00
4113;BME280;2070;51.042;7.056;2022-10-16T06:40:01;61587.88;;;-146.17;100.00
4113;BME280;2070;51.042;7.056;2022-10-16T06:42:29;60313.44;;;-146.17;100.00
4113;BME280;2070;51.042;7.056;2022-10-16T06:44:54;61155.34;;;-146.17;100.00
4113;BME280;2070;51.042;7.056;2022-10-16T06:47:20;63529.16;;;-146.17;100.00
4113;BME280;2070;51.042;7.056;2022-10-16T06:49:45;63391.28;;;-146.17;100.00
4113;BME280;2070;51.042;7.056;2022-10-16T06:52:10;62097.00;;;-146.17;100.00
4113;BME280;2070;51.042;7.056;2022-10-16T06:54:35;61528.53;;;-146.17;100.00
4113;BME280;2070;51.042;7.056;2022-10-16T06:57:01;62123.81;;;-146.17;100.00
4113;BME280;2070;51.042;7.056;2022-10-16T06:59:26;61149.59;;;-146.17;100.00
4113;BME280;2070;51.042;7.056;2022-10-16T07:01:52;60499.00;;;-146.17;100.00
4113;BME280;2070;51.042;7.056;2022-10-16T07:04:17;59816.03;;;-146.17;100.00
4113;BME280;2070;51.042;7.056;2022-10-16T07:06:43;58635.94;;;-146.17;100.00
4113;BME280;2070;51.042;7.056;2022-10-16T07:09:09;58723.91;;;-146.17;100.00
4113;BME280;2070;51.042;7.056;2022-10-16T07:11:36;58670.38;;;-146.17;100.00
4113;BME280;2070;51.042;7.056;2022-10-16T07:14:03;58764.06;;;-146.17;100.00
4113;BME280;2070;51.042;7.056;2022-10-16T07:16:30;58876.91;;;-146.17;100.00
4113;BME280;2070;51.042;7.056;2022-10-16T07:18:57;58836.75;;;-146.17;100.00
4113;BME280;2070;51.042;7.056;2022-10-16T07:21:24;57794.66;;;-146.17;100.00
4113;BME280;2070;51.042;7.056;2022-10-16T07:23:56;58410.31;;;-146.17;100.00
4113;BME280;2070;51.042;7.056;2022-10-16T07:26:23;57528.91;;;-146.17;100.00
4113;BME280;2070;51.042;7.056;2022-10-16T07:28:48;55883.41;;;-146.17;100.00
4113;BME280;2070;51.042;7.056;2022-10-16T07:31:16;53830.00;;;-146.17;100.00
4113;BME280;2070;51.042;7.056;2022-10-16T07:33:43;50369.72;;;-146.17;100.00
4113;BME280;2070;51.042;7.056;2022-10-16T07:36:09;49938.63;;;-146.17;100.00
4113;BME280;2070;51.042;7.056;2022-10-16T07:38:35;47938.38;;;-146.17;100.00
4113;BME280;2070;51.042;7.056;2022-10-16T07:41:03;44267.06;;;-146.17;100.00
4113;BME280;2070;51.042;7.056;2022-10-16T07:43:29;43427.44;;;-146.17;100.00
4113;BME280;2070;51.042;7.056;2022-10-16T07:45:55;41001.09;;;-146.17;100.00
4113;BME280;2070;51.042;7.056;2022-10-16T07:48:21;36463.34;;;-146.17;100.00
4113;BME280;2070;51.042;7.056;2022-10-16T07:50:47;22345.78;;;-146.17;100.00
4113;BME280;2070;51.042;7.056;2022-10-16T07:53:13;30072.97;;;-146.17;100.00
4113;BME280;2070;51.042;7.056;2022-10-16T07:55:39;26517.75;;;-146.17;100.00
4113;BME280;2070;51.042;7.056;2022-10-16T07:58:05;20324.13;;;-146.17;100.00
4113;BME280;2070;51.042;7.056;2022-10-16T08:00:30;11893.44;;;-146.17;100.00
4113;BME280;2070;51.042;7.056;2022-10-16T08:02:57;9186.56;;;-146.17;100.00
4113;BME280;2070;51.042;7.056;2022-10-16T08:05:28;6263.56;;;-146.17;100.00
4113;BME280;2070;51.042;7.056;2022-10-16T08:07:54;1366.91;;;-146.17;100.00
4113;BME280;2070;51.042;7.056;2022-10-16T08:10:21;19307.16;;;-146.17;100.00
4113;BME280;2070;51.042;7.056;2022-10-16T08:12:47;29839.78;;;-146.17;100.00
4113;BME280;2070;51.042;7.056;2022-10-16T08:15:12;50209.47;;;-146.17;100.00
4113;BME280;2070;51.042;7.056;2022-10-16T08:17:38;42723.13;;;-146.17;100.00
4113;BME280;2070;51.042;7.056;2022-10-16T08:20:04;94639.75;;;-146.17;100.00
4113;BME280;2070;51.042;7.056;2022-10-16T08:22:29;108140.81;;;-146.17;100.00
4113;BME280;2070;51.042;7.056;2022-10-16T08:24:55;109223.47;;;-146.17;93.46
4113;BME280;2070;51.042;7.056;2022-10-16T08:27:20;102951.44;;;-146.17;98.34
4113;BME280;2070;51.042;7.056;2022-10-16T08:29:45;101332.44;;;-146.17;96.00
4113;BME280;2070;51.042;7.056;2022-10-16T08:32:11;100292.88;;;-146.17;92.98
4113;BME280;2070;51.042;7.056;2022-10-16T08:34:37;90022.38;;;-146.17;94.00
4113;BME280;2070;51.042;7.056;2022-10-16T08:37:02;106261.53;;;-146.17;89.44
4113;BME280;2070;51.042;7.056;2022-10-16T08:39:27;97909.03;;;-146.17;90.47
4113;BME280;2070;51.042;7.056;2022-10-16T08:47:49;109223.47;;;-146.17;79.05
4113;BME280;2070;51.042;7.056;2022-10-16T08:50:24;109223.47;;;-146.17;80.38
4113;BME280;2070;51.042;7.056;2022-10-16T08:52:50;109223.47;;;-146.17;78.47
4113;BME280;2070;51.042;7.056;2022-10-16T08:57:53;109223.47;;;-146.17;73.82
4113;BME280;2070;51.042;7.056;2022-10-16T09:00:19;109223.47;;;-146.17;68.99
4113;BME280;2070;51.042;7.056;2022-10-16T09:18:29;109223.47;;;-146.17;67.54
4113;BME280;2070;51.042;7.056;2022-10-16T09:21:12;109223.47;;;-146.17;63.36
4113;BME280;2070;51.042;7.056;2022-10-16T09:23:39;109223.47;;;-146.17;60.91
4113;BME280;2070;51.042;7.056;2022-10-16T09:26:05;109223.47;;;-146.17;63.67
4113;BME280;2070;51.042;7.056;2022-10-16T09:28:31;109223.47;;;-146.17;66.90
4113;BME280;2070;51.042;7.056;2022-10-16T09:30:57;109221.53;;;-146.17;61.07
4113;BME280;2070;51.042;7.056;2022-10-16T09:33:33;109221.53;;;-146.17;65.92
4113;BME280;2070;51.042;7.056;2022-10-16T09:36:02;109223.47;;;-146.17;65.86
4113;BME280;2070;51.042;7.056;2022-10-16T09:38:33;109223.47;;;-146.17;59.53
4113;BME280;2070;51.042;7.056;2022-10-16T09:41:00;109223.47;;;-146.17;53.03
4113;BME280;2070;51.042;7.056;2022-10-16T09:43:39;109221.53;;;-146.17;59.93
4113;BME280;2070;51.042;7.056;2022-10-16T09:46:08;109221.53;;;-146.17;62.80
4113;BME280;2070;51.042;7.056;2022-10-16T09:48:36;109223.47;;;-146.17;55.08
4113;BME280;2070;51.042;7.056;2022-10-16T09:51:04;109221.53;;;-146.17;59.05
4113;BME280;2070;51.042;7.056;2022-10-16T09:53:41;109223.47;;;-146.17;58.18
4113;BME280;2070;51.042;7.056;2022-10-16T09:56:10;109223.47;;;-146.17;51.23
4113;BME280;2070;51.042;7.056;2022-10-16T09:58:42;109221.53;;;-146.17;54.90
4113;BME280;2070;51.042;7.056;2022-10-16T10:01:13;108973.16;;;-146.17;54.16
4113;BME280;2070;51.042;7.056;2022-10-16T10:03:40;109221.53;;;-146.17;55.53
4113;BME280;2070;51.042;7.056;2022-10-16T10:08:41;109221.53;;;-146.17;55.22
4113;BME280;2070;51.042;7.056;2022-10-16T10:11:06;108724.81;;;-146.17;61.57
4113;BME280;2070;51.042;7.056;2022-10-16T10:13:32;108476.44;;;-146.17;67.00
4113;BME280;2070;51.042;7.056;2022-10-16T10:15:57;108476.44;;;-146.17;70.54
4113;BME280;2070;51.042;7.056;2022-10-16T10:18:23;107979.81;;;-146.17;72.08
4113;BME280;2070;51.042;7.056;2022-10-16T10:21:02;107979.81;;;-146.17;76.37
4113;BME280;2070;51.042;7.056;2022-10-16T10:23:29;107731.53;;;-146.17;76.87
4113;BME280;2070;51.042;7.056;2022-10-16T10:28:47;107731.53;;;-146.17;74.18
4113;BME280;2070;51.042;7.056;2022-10-16T10:31:26;107483.25;;;-146.17;74.88
4113;BME280;2070;51.042;7.056;2022-10-16T10:36:37;107731.53;;;-146.17;80.28
4113;BME280;2070;51.042;7.056;2022-10-16T10:39:24;107483.25;;;-146.17;81.83
4113;BME280;2070;51.042;7.056;2022-10-16T10:50:14;108228.13;;;-146.17;88.41
4113;BME280;2070;51.042;7.056;2022-10-16T10:53:03;108724.81;;;-146.17;88.79
4113;BME280;2070;51.042;7.056;2022-10-16T10:55:40;107979.81;;;-146.17;84.48
4113;BME280;2070;51.042;7.056;2022-10-16T11:00:50;107731.53;;;-146.17;82.67
4113;BME280;2070;51.042;7.056;2022-10-16T11:06:00;108476.44;;;-146.17;90.51
4113;BME280;2070;51.042;7.056;2022-10-16T11:08:35;108724.81;;;-146.17;91.43
4113;BME280;2070;51.042;7.056;2022-10-16T11:11:19;108724.81;;;-146.17;85.30
4113;BME280;2070;51.042;7.056;2022-10-16T11:16:35;108476.44;;;-146.17;83.88
4113;BME280;2070;51.042;7.056;2022-10-16T11:19:14;108973.16;;;-146.17;84.89
4113;BME280;2070;51.042;7.056;2022-10-16T11:21:49;108724.81;;;-146.17;81.96
4113;BME280;2070;51.042;7.056;2022-10-16T11:24:23;108476.44;;;-146.17;76.73
4113;BME280;2070;51.042;7.056;2022-10-16T11:26:53;108476.44;;;-146.17;79.28
4113;BME280;2070;51.042;7.056;2022-10-16T11:29:26;108476.44;;;-146.17;79.34
4113;BME280;2070;51.042;7.056;2022-10-16T11:31:58;108228.13;;;-146.17;80.32
4113;BME280;2070;51.042;7.056;2022-10-16T11:37:14;108476.44;;;-146.17;77.28
4113;BME280;2070;51.042;7.056;2022-10-16T11:39:43;108228.13;;;-146.17;78.65
4113;BME280;2070;51.042;7.056;2022-10-16T11:42:33;108228.13;;;-146.17;83.29
4113;BME280;2070;51.042;7.056;2022-10-16T11:45:26;108724.81;;;-146.17;85.70
4113;BME280;2070;51.042;7.056;2022-10-16T11:48:10;108973.16;;;-146.17;85.25
4113;BME280;2070;51.042;7.056;2022-10-16T11:51:02;108724.81;;;-146.17;78.48
4113;BME280;2070;51.042;7.056;2022-10-16T11:53:42;108724.81;;;-146.17;75.91
4113;BME280;2070;51.042;7.056;2022-10-16T11:56:18;108476.44;;;-146.17;77.59
4113;BME280;2070;51.042;7.056;2022-10-16T12:01:27;108724.81;;;-146.17;74.45
4113;BME280;2070;51.042;7.056;2022-10-16T12:04:12;108724.81;;;-146.17;72.76
4113;BME280;2070;51.042;7.056;2022-10-16T12:06:44;108724.81;;;-146.17;77.24
4113;BME280;2070;51.042;7.056;2022-10-16T12:09:26;108724.81;;;-146.17;74.16
4113;BME280;2070;51.042;7.056;2022-10-16T12:11:52;108973.16;;;-146.17;71.54
4113;BME280;2070;51.042;7.056;2022-10-16T12:17:04;108724.81;;;-146.17;70.89
4113;BME280;2070;51.042;7.056;2022-10-16T12:20:01;108973.16;;;-146.17;72.53
4113;BME280;2070;51.042;7.056;2022-10-16T12:22:48;108973.16;;;-146.17;69.38
4113;BME280;2070;51.042;7.056;2022-10-16T12:25:40;108476.44;;;-146.17;69.68
4113;BME280;2070;51.042;7.056;2022-10-16T12:30:40;107979.81;;;-146.17;73.37
4113;BME280;2070;51.042;7.056;2022-10-16T12:33:20;107979.81;;;-146.17;73.27
4113;BME280;2070;51.042;7.056;2022-10-16T12:35:46;107979.81;;;-146.17;76.63
4113;BME280;2070;51.042;7.056;2022-10-16T12:38:26;108228.13;;;-146.17;79.60
4113;BME280;2070;51.042;7.056;2022-10-16T12:41:07;107731.53;;;-146.17;77.86
4113;BME280;2070;51.042;7.056;2022-10-16T12:43:42;107979.81;;;-146.17;81.35
4113;BME280;2070;51.042;7.056;2022-10-16T12:48:34;107731.53;;;-146.17;79.58
4113;BME280;2070;51.042;7.056;2022-10-16T12:51:25;108228.13;;;-146.17;80.17
4113;BME280;2070;51.042;7.056;2022-10-16T12:56:46;107979.81;;;-146.17;76.08
4113;BME280;2070;51.042;7.056;2022-10-16T13:04:25;108228.13;;;-146.17;79.66
4113;BME280;2070;51.042;7.056;2022-10-16T13:07:00;108228.13;;;-146.17;76.08
4113;BME280;2070;51.042;7.056;2022-10-16T13:09:45;108228.13;;;-146.17;74.94
4113;BME280;2070;51.042;7.056;2022-10-16T13:15:40;107979.81;;;-146.17;74.94
4113;BME280;2070;51.042;7.056;2022-10-16T13:18:24;108724.81;;;-146.17;76.29
4113;BME280;2070;51.042;7.056;2022-10-16T13:21:12;108476.44;;;-146.17;74.59
4113;BME280;2070;51.042;7.056;2022-10-16T13:23:54;108228.13;;;-146.17;73.38
4113;BME280;2070;51.042;7.056;2022-10-16T13:29:23;107731.53;;;-146.17;75.39
4113;BME280;2070;51.042;7.056;2022-10-16T13:31:49;107731.53;;;-146.17;74.96
4113;BME280;2070;51.042;7.056;2022-10-16T13:34:17;107979.81;;;-146.17;76.95
4113;BME280;2070;51.042;7.056;2022-10-16T13:36:47;107979.81;;;-146.17;75.21
4113;BME280;2070;51.042;7.056;2022-10-16T13:39:15;107731.53;;;-146.17;79.11
4113;BME280;2070;51.042;7.056;2022-10-16T13:41:42;107483.25;;;-146.17;81.15
4113;BME280;2070;51.042;7.056;2022-10-16T13:44:18;107731.53;;;-146.17;79.73
4113;BME280;2070;51.042;7.056;2022-10-16T13:46:44;107731.53;;;-146.17;82.58
4113;BME280;2070;51.042;7.056;2022-10-16T13:49:14;108228.13;;;-146.17;88.17
4113;BME280;2070;51.042;7.056;2022-10-16T13:51:39;108476.44;;;-146.17;92.53
4113;BME280;2070;51.042;7.056;2022-10-16T13:54:05;108228.13;;;-146.17;88.67
4113;BME280;2070;51.042;7.056;2022-10-16T13:56:32;108228.13;;;-146.17;92.67
4113;BME280;2070;51.042;7.056;2022-10-16T13:59:02;108476.44;;;-146.17;95.12
4113;BME280;2070;51.042;7.056;2022-10-16T14:04:04;94230.09;;;-146.17;100.00
4113;BME280;2070;51.042;7.056;2022-10-16T14:06:31;86604.34;;;-146.17;100.00
4113;BME280;2070;51.042;7.056;2022-10-16T14:09:08;82103.56;;;-146.17;100.00
4113;BME280;2070;51.042;7.056;2022-10-16T14:11:45;43534.03;;;-146.17;100.00
4113;BME280;2070;51.042;7.056;2022-10-16T14:14:12;109221.53;;;-146.17;96.79
4113;BME280;2070;51.042;7.056;2022-10-16T14:16:40;108876.16;;;-146.17;100.00
4113;BME280;2070;51.042;7.056;2022-10-16T14:19:17;101969.50;;;-146.17;100.00
4113;BME280;2070;51.042;7.056;2022-10-16T14:21:44;109221.53;;;-146.17;97.05
4113;BME280;2070;51.042;7.056;2022-10-16T14:24:13;109221.53;;;-146.17;96.71
4113;BME280;2070;51.042;7.056;2022-10-16T14:26:47;109221.53;;;-146.17;95.30